Airfield :
LOGIN :

Register | Disclaimer

   EN    FR    IT 

 










Legend :    VFR   Marginal VFR   IFR   Intensive IFR   Very Intensive IFR
Visi :
Ceiling :
>= 8 km
>= 3000ft
5 to 8 km
1000 to 3000 ft
1500m to 5 km
500 to 1000 ft
800 to 1500m
200 to 500 ft
< 800m
< 200 ft
Symbols :   Thunderstorms  Fog  Heavy snow  Heavy precipitations  Wind > 20 kt
SIGMETs :     Misc.  Thunderstorms  Icing  Turbulence  Mountain Waves  Volcanic Ashes






- Airport Elevation : 274 ft
- IATA code : PUY


LDPL - Pula

CURRENT METAR :
  • 231130Z VRB04KT 9999 SCT020 13/06 Q1026 TEMPO 24007KT

EXPIRED METARs :
  • 231100Z 13005KT 090V190 CAVOK 12/07 Q1027 TEMPO 24007KT
  • 231030Z 13003KT 090V210 CAVOK 12/07 Q1027 NOSIG
  • 231000Z 12004KT 080V170 CAVOK 11/07 Q1027 NOSIG
  • 230930Z 09005KT CAVOK 10/06 Q1028 NOSIG
  • 230900Z 08005KT CAVOK 10/06 Q1028 NOSIG

TAF TAF LDPL
Valid from the 23 at 12:00 until the 24 at 12:00 UTC


231125Z 2312/2412 15005KT 9999 FEW020 TX15/2411Z TN06/2405Z
TEMPO 2312/2316 24007KT
PROB30
TEMPO 2400/2407 4000 BR BKN008
BECMG 2405/2407 07008KT



MET'MAP, your aeronautical weather chart ! - Copyright ORBIFLY December 2007 - Disclaimer

ORBIFLY MET'MAP TEAM :

Programming & Development : Alexandra Zaïnal
Concept & original design : Baudouin d'Aumeries
Assistance for programming : Marc-Olivier Méhu
Technical & hardware support : Manuel Goepfert

Contact : metmap@orbifly.com




SOURCES & CREDITS :

   NOAA